createdAt,value
2022-09-28T00:01:11.129Z,90.03
2022-09-28T00:06:18.885Z,87.48
2022-09-28T00:11:24.154Z,85.53
2022-09-28T00:16:30.203Z,81.94
2022-09-28T00:21:36.932Z,78.44
2022-09-28T00:26:41.357Z,77.17
2022-09-28T00:31:46.045Z,77.73
2022-09-28T00:36:49.331Z,77.12
2022-09-28T00:41:54.123Z,77.00
2022-09-28T00:47:13.210Z,77.06
2022-09-28T00:52:23.604Z,73.70
2022-09-28T00:57:28.870Z,72.31
2022-09-28T01:02:32.232Z,71.46
2022-09-28T01:07:37.137Z,70.58
2022-09-28T01:12:40.545Z,70.32
2022-09-28T01:18:05.370Z,69.63
2022-09-28T01:23:43.264Z,70.41
2022-09-28T01:28:48.728Z,69.50
2022-09-28T01:34:00.081Z,68.13
2022-09-28T01:39:38.489Z,68.72
2022-09-28T01:44:47.159Z,69.61
2022-09-28T01:50:04.556Z,71.88
2022-09-28T01:55:17.300Z,72.74
2022-09-28T02:00:25.461Z,73.91
2022-09-28T02:05:35.901Z,74.18
2022-09-28T02:10:48.197Z,75.80
2022-09-28T02:15:59.229Z,75.84
2022-09-28T02:21:28.816Z,75.38
2022-09-28T02:26:38.198Z,71.44
2022-09-28T02:31:42.557Z,69.91
2022-09-28T02:36:47.311Z,69.82
2022-09-28T02:41:59.736Z,68.68
2022-09-28T02:47:26.764Z,70.66
2022-09-28T02:53:03.657Z,69.95
2022-09-28T02:58:40.943Z,69.00
2022-09-28T03:03:45.042Z,70.68
2022-09-28T03:09:07.504Z,67.99
2022-09-28T03:14:13.438Z,67.63
2022-09-28T03:19:33.138Z,69.29
2022-09-28T03:24:37.627Z,73.65
2022-09-28T03:29:41.183Z,78.09
2022-09-28T03:34:45.137Z,81.99
2022-09-28T03:39:48.946Z,84.90
2022-09-28T03:44:53.085Z,85.66
2022-09-28T03:49:56.498Z,88.08
2022-09-28T03:54:59.897Z,89.54
2022-09-28T04:00:05.635Z,91.52
2022-09-28T04:05:16.742Z,92.91
2022-09-28T04:10:21.217Z,93.95
2022-09-28T04:15:25.352Z,94.79
2022-09-28T04:20:29.102Z,96.25
2022-09-28T04:25:39.853Z,96.63
2022-09-28T04:30:47.616Z,98.51
2022-09-28T04:35:51.563Z,99.50
2022-09-28T04:40:54.716Z,97.65
2022-09-28T04:46:03.073Z,98.03
2022-09-28T04:51:13.027Z,98.72
2022-09-28T04:56:17.766Z,99.42
2022-09-28T05:01:23.930Z,99.59
2022-09-28T05:06:48.079Z,100.00
2022-09-28T05:11:53.332Z,100.00
2022-09-28T05:16:59.481Z,100.00
2022-09-28T05:22:07.462Z,100.00
2022-09-28T05:27:15.266Z,100.00
2022-09-28T05:32:21.567Z,100.00
2022-09-28T05:37:48.318Z,100.00
2022-09-28T05:42:51.700Z,100.00
2022-09-28T05:47:55.912Z,100.00
2022-09-28T05:53:11.603Z,100.00
2022-09-28T05:58:15.315Z,100.00
2022-09-28T06:03:18.832Z,100.00
2022-09-28T06:08:23.149Z,100.00
2022-09-28T06:13:43.089Z,66.41
2022-09-28T06:18:48.657Z,50.70
2022-09-28T06:24:10.481Z,43.71
2022-09-28T06:29:20.016Z,41.05
2022-09-28T06:34:25.012Z,39.07
2022-09-28T06:39:29.535Z,39.96
2022-09-28T06:44:34.296Z,39.29
2022-09-28T06:50:00.503Z,39.16
2022-09-28T06:55:24.835Z,36.72
2022-09-28T07:00:35.551Z,34.91
2022-09-28T07:05:43.500Z,35.91
2022-09-28T07:11:07.791Z,34.83
2022-09-28T07:16:26.427Z,35.99
2022-09-28T07:21:34.097Z,40.68
2022-09-28T07:26:40.734Z,38.39
2022-09-28T07:31:56.515Z,39.49
2022-09-28T07:37:05.959Z,38.18
2022-09-28T07:42:09.644Z,38.15
2022-09-28T07:47:12.988Z,32.73
2022-09-28T07:52:39.517Z,31.59
2022-09-28T07:58:01.806Z,31.66
2022-09-28T08:03:40.246Z,31.05
2022-09-28T08:08:45.544Z,32.27
2022-09-28T08:13:53.164Z,31.40
2022-09-28T08:19:14.817Z,30.46
2022-09-28T08:24:18.300Z,30.36
2022-09-28T08:29:23.480Z,31.22
2022-09-28T08:34:46.343Z,32.75
2022-09-28T08:40:19.024Z,31.93
2022-09-28T08:45:43.077Z,30.18
2022-09-28T08:51:15.850Z,31.03
2022-09-28T08:56:32.997Z,30.21
2022-09-28T09:01:44.430Z,30.91
2022-09-28T09:07:00.059Z,32.25
2022-09-28T09:12:43.794Z,32.36
2022-09-28T09:18:19.261Z,31.43
2022-09-28T09:23:56.369Z,32.86
2022-09-28T09:29:09.674Z,31.92
2022-09-28T09:34:42.813Z,33.77
2022-09-28T09:40:07.658Z,35.90
2022-09-28T09:45:56.911Z,37.67
2022-09-28T09:51:23.428Z,36.04
2022-09-28T09:56:44.189Z,35.06
2022-09-28T10:01:56.590Z,35.96
2022-09-28T10:07:23.106Z,35.35
2022-09-28T10:12:27.202Z,36.38
2022-09-28T10:17:31.696Z,37.37
2022-09-28T10:23:02.653Z,36.59
2022-09-28T10:28:07.954Z,38.21
2022-09-28T10:33:33.018Z,36.44
2022-09-28T10:38:36.411Z,42.84
2022-09-28T10:44:07.010Z,43.22
2022-09-28T10:49:47.103Z,42.27
2022-09-28T10:54:54.159Z,39.08
2022-09-28T10:59:59.442Z,40.28
2022-09-28T11:05:07.561Z,39.59
2022-09-28T11:10:23.332Z,41.88
2022-09-28T11:15:32.001Z,40.22
2022-09-28T11:20:42.643Z,38.79
2022-09-28T11:26:07.270Z,37.88
2022-09-28T11:31:12.170Z,40.10
2022-09-28T11:36:41.837Z,38.55
2022-09-28T11:42:00.240Z,39.37
2022-09-28T11:47:35.205Z,37.50
2022-09-28T11:52:46.461Z,39.74
2022-09-28T11:58:03.967Z,38.81
2022-09-28T12:03:35.085Z,37.58
2022-09-28T12:08:46.233Z,38.37
2022-09-28T12:14:19.090Z,37.65
2022-09-28T12:19:33.958Z,37.11
2022-09-28T12:24:40.191Z,35.50
2022-09-28T12:29:49.012Z,35.88
2022-09-28T12:34:52.833Z,36.90
2022-09-28T12:40:30.237Z,36.74
2022-09-28T12:46:10.912Z,38.33
2022-09-28T12:51:45.512Z,38.08
2022-09-28T12:56:58.332Z,37.90
2022-09-28T13:02:34.295Z,37.88
2022-09-28T13:07:44.798Z,34.18
2022-09-28T13:13:00.117Z,35.55
2022-09-28T13:18:23.315Z,35.56
2022-09-28T13:23:31.390Z,33.62
2022-09-28T13:28:36.391Z,34.35
2022-09-28T13:33:40.890Z,32.41
2022-09-28T13:38:49.856Z,32.57
2022-09-28T13:44:28.313Z,32.65
2022-09-28T13:49:54.617Z,29.99
2022-09-28T13:55:04.018Z,32.66
2022-09-28T14:00:28.394Z,34.03
2022-09-28T14:05:42.010Z,32.61
2022-09-28T14:10:57.154Z,31.39
2022-09-28T14:16:21.234Z,31.84
2022-09-28T14:21:56.072Z,31.73
2022-09-28T14:27:05.087Z,30.86
2022-09-28T14:32:13.523Z,31.52
2022-09-28T14:37:49.838Z,33.91
2022-09-28T14:43:25.135Z,32.01
2022-09-28T14:48:51.227Z,32.38
2022-09-28T14:53:56.040Z,32.33
2022-09-28T14:58:59.705Z,33.82
2022-09-28T15:04:05.377Z,33.20
2022-09-28T15:09:27.485Z,33.52
2022-09-28T15:14:33.509Z,35.05
2022-09-28T15:19:43.505Z,36.28
2022-09-28T15:25:01.348Z,36.98
2022-09-28T15:30:25.873Z,37.57
2022-09-28T15:35:30.309Z,38.44
2022-09-28T15:40:38.122Z,36.94
2022-09-28T15:45:43.762Z,36.55
2022-09-28T15:51:21.496Z,35.10
2022-09-28T15:56:28.858Z,35.21
2022-09-28T16:01:38.291Z,36.46
2022-09-28T16:06:42.002Z,39.54
2022-09-28T16:11:45.032Z,37.44
2022-09-28T16:16:50.029Z,39.56
2022-09-28T16:21:56.060Z,43.68
2022-09-28T16:27:03.180Z,50.86
2022-09-28T16:32:27.170Z,58.10
2022-09-28T16:37:32.984Z,57.75
2022-09-28T16:42:36.937Z,64.54
2022-09-28T16:47:40.952Z,68.25
2022-09-28T16:53:02.392Z,69.94
2022-09-28T16:58:06.991Z,71.77
2022-09-28T17:03:19.163Z,74.22
2022-09-28T17:08:24.639Z,76.95
2022-09-28T17:13:34.103Z,80.07
2022-09-28T17:18:39.519Z,82.17
2022-09-28T17:23:47.801Z,83.08
2022-09-28T17:28:51.238Z,84.53
2022-09-28T17:33:55.844Z,85.46
2022-09-28T17:38:58.924Z,85.64
2022-09-28T17:44:03.303Z,87.73
2022-09-28T17:49:07.871Z,87.15
2022-09-28T17:54:13.098Z,84.32
2022-09-28T17:59:18.082Z,77.22
2022-09-28T18:04:50.379Z,78.29
2022-09-28T19:13:02.462Z,84.85
2022-09-28T19:18:25.459Z,85.15
2022-09-28T19:23:28.889Z,86.19
2022-09-28T19:28:32.555Z,86.38
2022-09-28T19:33:40.305Z,85.52
2022-09-28T19:38:44.293Z,85.81
2022-09-28T19:49:37.261Z,86.52
2022-09-28T19:54:41.633Z,87.76
2022-09-28T19:59:45.396Z,88.75
2022-09-28T20:04:50.365Z,89.44
2022-09-28T20:09:53.773Z,89.94
2022-09-28T20:14:56.687Z,89.63
2022-09-28T20:20:00.038Z,89.98
2022-09-28T20:25:03.529Z,90.85
2022-09-28T20:30:08.124Z,90.34
2022-09-28T20:35:11.734Z,90.44
2022-09-28T20:40:15.028Z,90.33
2022-09-28T20:45:18.377Z,91.47
2022-09-28T20:50:23.628Z,92.13
2022-09-28T20:55:26.841Z,92.28
2022-09-28T21:00:29.859Z,88.18
2022-09-28T21:05:36.532Z,81.77
2022-09-28T21:10:43.855Z,79.15
2022-09-28T21:15:49.476Z,78.44
2022-09-28T21:20:52.364Z,77.83
2022-09-28T21:26:26.402Z,77.50
2022-09-28T21:31:32.828Z,77.35
2022-09-28T21:36:36.258Z,76.94
2022-09-28T21:41:39.821Z,77.44
2022-09-28T21:46:43.370Z,78.69
2022-09-28T21:51:47.250Z,79.81
2022-09-28T21:56:50.066Z,80.42
2022-09-28T22:01:53.979Z,79.33
2022-09-28T22:06:57.251Z,76.15
2022-09-28T22:12:00.600Z,70.41
2022-09-28T22:17:04.249Z,67.12
2022-09-28T22:22:07.487Z,68.06
2022-09-28T22:27:10.357Z,68.94
2022-09-28T22:32:13.246Z,66.94
2022-09-28T22:37:16.118Z,64.19
2022-09-28T22:42:23.065Z,64.29
2022-09-28T22:47:25.976Z,62.15
2022-09-28T22:52:28.897Z,61.75
2022-09-28T22:57:32.532Z,60.74
2022-09-28T23:02:35.687Z,60.25
2022-09-28T23:07:38.967Z,60.66
2022-09-28T23:12:42.733Z,59.55
2022-09-28T23:17:46.036Z,59.91
2022-09-28T23:22:50.783Z,60.61
2022-09-28T23:27:53.628Z,59.70
2022-09-28T23:32:57.071Z,59.02
2022-09-28T23:38:00.968Z,59.30
2022-09-28T23:43:04.243Z,58.95
2022-09-28T23:48:07.668Z,57.12
2022-09-28T23:53:13.837Z,56.76
2022-09-28T23:58:17.510Z,55.14
